Time;durP1;ratioP1;P1;durP2;ratioP2;P2;SDS_P1;SDS_P2;PMS_P1;PMS_P2;Temp;Humidity;BMP_temperature;BMP_pressure;BME280_temperature;BME280_humidity;BME280_pressure;Samples;Min_cycle;Max_cycle;Signal;HPM_P1;HPM_P2
2023/04/19 00:00:07;;;;;;;492.60;107.37;;;10.30;99.90;;;;;;5084348;28;20671;-51
2023/04/19 00:02:36;;;;;;;480.03;98.93;;;10.30;99.90;;;;;;5090288;28;20678;-51
2023/04/19 00:05:06;;;;;;;316.43;86.37;;;10.30;99.90;;;;;;5089153;28;20220;-51
2023/04/19 00:07:34;;;;;;;301.57;70.30;;;10.30;99.90;;;;;;5085905;28;20250;-52
2023/04/19 00:10:02;;;;;;;1031.10;156.50;;;10.40;99.90;;;;;;5089976;28;20196;-52
2023/04/19 00:12:30;;;;;;;1114.97;186.77;;;10.30;99.90;;;;;;5089832;28;20197;-51
2023/04/19 00:14:58;;;;;;;1117.90;151.60;;;10.40;99.90;;;;;;5086999;28;20274;-52
2023/04/19 00:17:27;;;;;;;1996.80;275.70;;;10.40;99.90;;;;;;5093740;28;20212;-51
2023/04/19 00:19:57;;;;;;;896.37;137.83;;;10.50;99.90;;;;;;5076907;28;20694;-51
2023/04/19 00:22:25;;;;;;;727.03;145.33;;;10.40;99.90;;;;;;5083857;28;20240;-51
2023/04/19 00:24:53;;;;;;;326.20;96.97;;;10.40;99.90;;;;;;5082626;28;20337;-50
2023/04/19 00:27:21;;;;;;;935.23;156.67;;;10.40;99.90;;;;;;5090047;28;20219;-51
2023/04/19 00:29:49;;;;;;;178.97;67.40;;;10.40;99.90;;;;;;5090044;28;20655;-51
2023/04/19 00:32:17;;;;;;;800.07;139.87;;;10.40;99.90;;;;;;5075768;28;20335;-51
2023/04/19 00:34:46;;;;;;;900.27;129.27;;;10.50;99.90;;;;;;5089600;28;20591;-52
2023/04/19 00:37:15;;;;;;;1401.93;214.13;;;10.50;99.90;;;;;;5089844;28;20212;-51
2023/04/19 00:39:43;;;;;;;1369.13;224.93;;;10.50;99.90;;;;;;5089870;28;20333;-51
2023/04/19 00:42:11;;;;;;;1063.67;167.83;;;10.40;99.90;;;;;;5089572;28;20208;-51
2023/04/19 00:44:39;;;;;;;1942.53;536.33;;;10.40;99.90;;;;;;5089865;28;20264;-51
2023/04/19 00:47:07;;;;;;;1331.93;219.40;;;10.40;99.90;;;;;;5089859;28;20227;-50
2023/04/19 00:49:35;;;;;;;546.37;88.97;;;10.40;99.90;;;;;;5075230;28;20341;-51
2023/04/19 00:52:04;;;;;;;1336.83;176.30;;;10.40;99.90;;;;;;5089847;28;20294;-52
2023/04/19 00:54:34;;;;;;;1190.37;209.73;;;10.40;99.90;;;;;;5089514;28;20319;-51
2023/04/19 00:57:02;;;;;;;790.03;157.13;;;10.40;99.90;;;;;;5088715;28;20306;-51
2023/04/19 00:59:31;;;;;;;929.60;143.07;;;10.40;99.90;;;;;;5085927;28;20319;-51
2023/04/19 01:01:59;;;;;;;1386.40;270.33;;;10.40;99.90;;;;;;5089214;28;20204;-51
2023/04/19 01:04:27;;;;;;;1874.07;315.20;;;10.30;99.90;;;;;;5088706;28;20223;-51
2023/04/19 01:06:56;;;;;;;804.27;153.60;;;10.40;99.90;;;;;;5088084;28;20202;-51
2023/04/19 01:09:24;;;;;;;1641.13;205.57;;;10.40;99.90;;;;;;5083230;28;20204;-52
2023/04/19 01:11:54;;;;;;;1034.97;187.83;;;10.40;99.90;;;;;;5089046;28;20247;-51
2023/04/19 01:14:22;;;;;;;1576.03;262.17;;;10.40;99.90;;;;;;5089237;28;20668;-51
2023/04/19 01:16:50;;;;;;;591.80;131.93;;;10.40;99.90;;;;;;5088722;28;20649;-51
2023/04/19 01:19:18;;;;;;;730.97;130.40;;;10.40;99.90;;;;;;5089184;28;20208;-52
2023/04/19 01:21:46;;;;;;;1467.47;200.13;;;10.40;99.90;;;;;;5086324;28;20292;-51
2023/04/19 01:24:15;;;;;;;598.27;101.60;;;10.30;99.90;;;;;;5088744;28;20776;-51
2023/04/19 01:26:44;;;;;;;1999.90;322.17;;;10.30;99.90;;;;;;5089107;28;20208;-51
2023/04/19 01:29:12;;;;;;;681.83;140.70;;;10.30;99.90;;;;;;5088804;28;20307;-51
2023/04/19 01:31:40;;;;;;;713.80;123.93;;;10.20;99.90;;;;;;5088818;28;20714;-51
2023/04/19 01:34:08;;;;;;;650.03;130.90;;;10.20;99.90;;;;;;5088956;28;20256;-51
2023/04/19 01:36:36;;;;;;;1665.03;258.67;;;10.20;99.90;;;;;;5088764;28;20287;-51
2023/04/19 01:39:05;;;;;;;906.87;164.80;;;10.20;99.90;;;;;;5088581;28;20686;-51
2023/04/19 01:41:34;;;;;;;875.87;153.17;;;10.30;99.90;;;;;;5085733;28;20235;-51
2023/04/19 01:44:02;;;;;;;1331.93;232.30;;;10.30;99.90;;;;;;5088516;28;20704;-51
2023/04/19 01:46:30;;;;;;;1589.50;261.43;;;10.30;99.90;;;;;;5094364;28;20200;-51
2023/04/19 01:48:58;;;;;;;1999.90;344.47;;;10.20;99.90;;;;;;5091122;28;20203;-51
2023/04/19 01:51:26;;;;;;;829.27;128.17;;;10.20;99.90;;;;;;5107588;28;20238;-51
2023/04/19 01:53:54;;;;;;;1999.90;568.03;;;10.20;99.90;;;;;;5099367;28;20266;-52
2023/04/19 01:56:22;;;;;;;1210.63;186.33;;;10.20;99.90;;;;;;5095368;28;20244;-51
2023/04/19 01:58:52;;;;;;;1344.80;217.03;;;10.20;99.90;;;;;;5101655;28;20401;-52
2023/04/19 02:01:20;;;;;;;1999.90;367.00;;;10.20;99.90;;;;;;5108797;28;20773;-51
2023/04/19 02:03:48;;;;;;;1999.90;526.67;;;10.20;99.90;;;;;;5097118;28;20224;-51
2023/04/19 02:06:16;;;;;;;1616.33;274.00;;;10.20;99.90;;;;;;5106523;28;20208;-51
2023/04/19 02:08:44;;;;;;;1379.80;214.03;;;10.20;99.90;;;;;;5108918;28;20318;-51
2023/04/19 02:11:14;;;;;;;1171.50;256.90;;;10.20;99.90;;;;;;5108952;28;20338;-52
2023/04/19 02:13:42;;;;;;;1533.13;308.07;;;10.10;99.90;;;;;;5112291;28;20223;-51
2023/04/19 02:16:12;;;;;;;1184.97;202.80;;;10.10;99.90;;;;;;5113114;28;20231;-51
2023/04/19 02:18:40;;;;;;;1681.03;294.03;;;10.10;99.90;;;;;;5112919;27;20233;-51
2023/04/19 02:21:09;;;;;;;1759.87;303.73;;;10.10;99.90;;;;;;5112731;28;20280;-51
2023/04/19 02:23:37;;;;;;;1999.90;461.07;;;10.10;99.90;;;;;;5104020;28;20727;-51
2023/04/19 02:26:05;;;;;;;923.80;206.43;;;10.10;99.90;;;;;;5113192;28;20239;-51
2023/04/19 02:28:33;;;;;;;1157.37;190.67;;;10.10;99.90;;;;;;5102436;28;20238;-51
2023/04/19 02:31:05;;;;;;;1999.90;511.60;;;10.10;99.90;;;;;;5113305;28;20624;-51
2023/04/19 02:33:35;;;;;;;1999.90;443.23;;;10.10;99.90;;;;;;5107928;28;20314;-51
2023/04/19 02:36:03;;;;;;;1999.90;730.53;;;10.10;99.90;;;;;;5073681;28;20212;-51
2023/04/19 02:38:31;;;;;;;1999.90;314.87;;;10.00;99.90;;;;;;5075791;28;20237;-52
2023/04/19 02:41:00;;;;;;;1999.90;393.83;;;10.00;99.90;;;;;;5095156;28;20754;-51
2023/04/19 02:43:28;;;;;;;1940.90;284.17;;;10.00;99.90;;;;;;5103866;27;20235;-51
2023/04/19 02:45:56;;;;;;;1464.00;212.97;;;10.00;99.90;;;;;;5112164;28;20286;-51
2023/04/19 02:48:24;;;;;;;1617.10;316.63;;;9.90;99.90;;;;;;5108015;28;20211;-51
2023/04/19 02:50:53;;;;;;;1999.90;444.00;;;10.00;99.90;;;;;;5112619;28;20200;-51
2023/04/19 02:53:21;;;;;;;1639.33;293.03;;;10.00;99.90;;;;;;5112365;28;20253;-51
2023/04/19 02:55:49;;;;;;;899.63;221.23;;;10.00;99.90;;;;;;5106263;28;20236;-51
2023/04/19 02:58:18;;;;;;;1999.90;432.67;;;10.00;99.90;;;;;;5104535;28;20291;-51
2023/04/19 03:00:46;;;;;;;1999.90;393.47;;;9.90;99.90;;;;;;5111854;28;20756;-51
2023/04/19 03:03:13;;;;;;;1999.90;566.30;;;9.90;99.90;;;;;;5091958;28;20318;-51
2023/04/19 03:05:42;;;;;;;1999.90;405.97;;;9.80;99.90;;;;;;5094228;28;20203;-51
2023/04/19 03:08:11;;;;;;;1999.90;351.47;;;9.90;99.90;;;;;;5096392;28;20236;-50
2023/04/19 03:10:39;;;;;;;1999.90;562.87;;;9.80;99.90;;;;;;5093793;28;20283;-51
2023/04/19 03:13:07;;;;;;;1999.90;583.23;;;9.90;99.90;;;;;;5101829;28;20290;-51
2023/04/19 03:15:36;;;;;;;643.43;162.30;;;9.90;99.90;;;;;;5103912;28;20215;-52
2023/04/19 03:18:04;;;;;;;1999.90;471.20;;;9.90;99.90;;;;;;5098567;28;20211;-51
2023/04/19 03:20:32;;;;;;;1890.27;364.53;;;9.80;99.90;;;;;;5109385;28;20211;-51
2023/04/19 03:23:01;;;;;;;1999.90;773.27;;;9.80;99.90;;;;;;5110815;28;20290;-51
2023/04/19 03:25:30;;;;;;;1164.93;225.60;;;9.90;99.90;;;;;;5111836;28;20747;-51
2023/04/19 03:27:58;;;;;;;1999.90;829.63;;;9.80;99.90;;;;;;5111647;28;20227;-51
2023/04/19 03:30:26;;;;;;;1836.33;305.50;;;9.90;99.90;;;;;;5107379;28;20211;-51
2023/04/19 03:32:55;;;;;;;1561.97;276.67;;;9.80;99.90;;;;;;5111486;28;20294;-51
2023/04/19 03:35:25;;;;;;;1999.90;623.23;;;9.80;99.90;;;;;;5111636;27;20299;-51
2023/04/19 03:37:53;;;;;;;1093.43;194.33;;;9.70;99.90;;;;;;5105915;28;20287;-51
2023/04/19 03:40:21;;;;;;;1236.97;205.03;;;9.70;99.90;;;;;;5111477;28;20624;-51
2023/04/19 03:42:50;;;;;;;1999.90;710.43;;;9.70;99.90;;;;;;5111324;28;20760;-51
2023/04/19 03:45:19;;;;;;;1369.27;256.70;;;9.70;99.90;;;;;;5111642;28;20318;-51
2023/04/19 03:47:47;;;;;;;1999.90;444.80;;;9.70;99.90;;;;;;5111313;28;20702;-51
2023/04/19 03:50:15;;;;;;;1390.37;261.17;;;9.70;99.90;;;;;;5109866;28;20211;-51
2023/04/19 03:52:43;;;;;;;1999.90;697.40;;;9.70;99.90;;;;;;5111195;28;20673;-51
2023/04/19 03:55:12;;;;;;;1999.90;459.60;;;9.70;99.90;;;;;;5111194;28;20314;-51
2023/04/19 03:57:41;;;;;;;1160.20;238.97;;;9.60;99.90;;;;;;5111028;28;20211;-51
2023/04/19 04:00:12;;;;;;;1999.90;630.80;;;9.60;99.90;;;;;;5108216;28;20215;-51
2023/04/19 04:02:40;;;;;;;1999.90;491.90;;;9.60;99.90;;;;;;5111338;28;20215;-51
2023/04/19 04:05:08;;;;;;;1999.90;391.50;;;9.60;99.90;;;;;;5111144;27;20224;-51
2023/04/19 04:07:36;;;;;;;1999.90;900.53;;;9.50;99.90;;;;;;5105892;28;20297;-51
2023/04/19 04:10:05;;;;;;;1999.90;429.47;;;9.50;99.90;;;;;;5099382;28;20361;-50
2023/04/19 04:12:33;;;;;;;1999.90;799.23;;;9.40;99.90;;;;;;5093820;28;20740;-52
2023/04/19 04:15:02;;;;;;;1999.90;352.80;;;9.50;99.90;;;;;;5089290;28;20232;-51
2023/04/19 04:17:31;;;;;;;1233.50;321.20;;;9.40;99.90;;;;;;5092621;28;20287;-51
2023/04/19 04:20:00;;;;;;;1999.90;568.60;;;9.40;99.90;;;;;;5092032;28;20200;-51
2023/04/19 04:22:28;;;;;;;1999.90;430.53;;;9.50;99.90;;;;;;5099491;28;20227;-50
2023/04/19 04:24:57;;;;;;;1999.90;594.30;;;9.50;99.90;;;;;;5103567;28;20226;-51
2023/04/19 04:27:25;;;;;;;1332.27;338.57;;;9.40;99.90;;;;;;5098950;28;20713;-52
2023/04/19 04:29:53;;;;;;;1297.93;242.33;;;9.40;99.90;;;;;;5090800;28;20289;-52
2023/04/19 04:32:21;;;;;;;1999.90;847.37;;;9.40;99.90;;;;;;5092667;28;20197;-51
2023/04/19 04:34:51;;;;;;;1999.90;754.73;;;9.30;99.90;;;;;;5090145;28;20224;-51
2023/04/19 04:37:19;;;;;;;1999.90;635.33;;;9.30;99.90;;;;;;5097192;28;20210;-51
2023/04/19 04:39:47;;;;;;;1999.90;845.93;;;9.30;99.90;;;;;;5108192;28;20203;-51
2023/04/19 04:42:16;;;;;;;1999.90;999.90;;;9.30;99.90;;;;;;5109959;28;20783;-51
2023/04/19 04:44:46;;;;;;;1999.90;999.90;;;9.20;99.90;;;;;;5102331;28;20223;-51
2023/04/19 04:47:14;;;;;;;1999.90;680.17;;;9.30;99.90;;;;;;5100425;27;20211;-52
2023/04/19 04:49:42;;;;;;;1702.93;385.37;;;9.20;99.90;;;;;;5092195;28;20208;-51
2023/04/19 04:52:11;;;;;;;1999.90;589.17;;;9.30;99.90;;;;;;5102962;28;20256;-51
2023/04/19 04:54:39;;;;;;;1999.90;481.57;;;9.30;99.90;;;;;;5082599;28;20223;-50
2023/04/19 04:57:08;;;;;;;1999.90;878.93;;;9.20;99.90;;;;;;5095933;28;20736;-51
2023/04/19 04:59:36;;;;;;;391.57;126.63;;;9.30;99.90;;;;;;5101469;28;20287;-51
2023/04/19 05:02:04;;;;;;;1796.40;408.13;;;9.20;99.90;;;;;;5109645;28;20427;-51
2023/04/19 05:04:33;;;;;;;1999.90;549.13;;;9.20;99.90;;;;;;5109691;28;20235;-50
2023/04/19 05:07:01;;;;;;;1841.50;320.53;;;9.20;99.90;;;;;;5089342;28;20927;-51
2023/04/19 05:09:30;;;;;;;343.27;106.83;;;9.20;99.90;;;;;;5092795;28;20231;-50
2023/04/19 05:11:58;;;;;;;1927.67;346.20;;;9.20;99.90;;;;;;5104831;28;20318;-51
2023/04/19 05:14:26;;;;;;;1999.90;507.60;;;9.10;99.90;;;;;;5100280;28;20290;-52
2023/04/19 05:16:54;;;;;;;1970.93;398.70;;;9.10;99.90;;;;;;5103289;28;20294;-52
2023/04/19 05:19:22;;;;;;;1539.00;288.97;;;9.10;99.90;;;;;;5097101;28;20246;-51
2023/04/19 05:21:51;;;;;;;1980.03;443.63;;;9.10;99.90;;;;;;5109165;28;20254;-51
2023/04/19 05:24:19;;;;;;;1902.73;433.60;;;9.10;99.90;;;;;;5090573;28;20294;-51
2023/04/19 05:26:48;;;;;;;1790.33;336.50;;;9.20;99.90;;;;;;5089104;28;20303;-51
2023/04/19 05:29:17;;;;;;;1999.90;970.03;;;9.20;99.90;;;;;;5106471;28;20206;-51
2023/04/19 05:31:45;;;;;;;1999.90;721.17;;;9.30;99.90;;;;;;5109401;28;20298;-51
2023/04/19 05:34:13;;;;;;;1999.90;916.57;;;9.20;99.90;;;;;;5107153;28;20587;-51
2023/04/19 05:36:41;;;;;;;1999.90;843.60;;;9.20;99.90;;;;;;5088892;28;20736;-52
2023/04/19 05:39:09;;;;;;;1999.90;843.97;;;9.20;99.90;;;;;;5094551;28;20305;-51
2023/04/19 05:41:37;;;;;;;1927.20;482.60;;;9.20;99.90;;;;;;5109195;28;20225;-51
2023/04/19 05:44:07;;;;;;;809.57;286.03;;;9.30;99.90;;;;;;5109006;28;20250;-51
2023/04/19 05:46:35;;;;;;;1999.90;673.73;;;9.30;99.90;;;;;;5094905;28;20204;-51
2023/04/19 05:49:03;;;;;;;1999.90;499.73;;;9.30;99.90;;;;;;5100716;28;20737;-52
2023/04/19 05:51:31;;;;;;;1999.90;987.73;;;9.50;99.90;;;;;;5105199;28;20211;-51
2023/04/19 05:54:00;;;;;;;1999.90;511.60;;;9.60;99.90;;;;;;5108860;28;20320;-52
2023/04/19 05:56:28;;;;;;;1999.90;838.20;;;9.70;99.90;;;;;;5094016;28;20208;-51
2023/04/19 05:58:57;;;;;;;1999.90;519.10;;;9.80;99.90;;;;;;5097027;28;20200;-51
2023/04/19 06:01:26;;;;;;;1999.90;724.83;;;9.90;99.90;;;;;;5109002;28;20210;-51
2023/04/19 06:03:54;;;;;;;1999.90;787.13;;;10.00;99.90;;;;;;5108741;28;20231;-52
2023/04/19 06:06:23;;;;;;;1999.90;643.07;;;10.10;99.90;;;;;;5108853;28;20203;-51
2023/04/19 06:08:51;;;;;;;1999.90;858.20;;;10.10;99.90;;;;;;5087463;28;20203;-52
2023/04/19 06:11:22;;;;;;;1999.90;706.53;;;10.20;99.90;;;;;;5108791;28;20243;-52
2023/04/19 06:14:01;;;;;;;1999.90;771.57;;;10.30;99.90;;;;;;5088233;28;20311;-51
2023/04/19 06:16:31;;;;;;;1999.90;993.53;;;10.50;99.90;;;;;;5089425;28;20244;-51
2023/04/19 06:18:59;;;;;;;1999.90;980.90;;;10.70;99.90;;;;;;5101066;28;20207;-51
2023/04/19 06:21:29;;;;;;;1999.90;995.87;;;10.80;99.90;;;;;;5096547;28;20244;-52
2023/04/19 06:23:57;;;;;;;1999.90;918.93;;;11.00;99.90;;;;;;5093548;28;20885;-52
2023/04/19 06:26:25;;;;;;;1999.90;999.90;;;11.00;99.90;;;;;;5092818;28;20204;-52
2023/04/19 06:28:53;;;;;;;1999.90;999.90;;;11.10;99.90;;;;;;5091574;28;20293;-51
2023/04/19 06:31:21;;;;;;;1999.90;999.90;;;11.30;99.90;;;;;;5108956;28;20203;-52
2023/04/19 06:33:51;;;;;;;1999.90;999.90;;;11.40;99.90;;;;;;5095226;28;20228;-52
2023/04/19 06:36:20;;;;;;;1999.90;999.90;;;11.30;99.90;;;;;;5091041;28;20307;-51
2023/04/19 06:38:48;;;;;;;1999.90;999.90;;;11.30;99.90;;;;;;5095125;28;20752;-51
2023/04/19 06:41:16;;;;;;;1999.90;968.43;;;11.10;99.90;;;;;;5089275;28;20296;-51
2023/04/19 06:43:45;;;;;;;1999.90;933.23;;;11.20;99.90;;;;;;5102172;28;20228;-53
2023/04/19 06:46:14;;;;;;;1999.90;999.90;;;11.40;99.90;;;;;;5082032;28;20599;-52
2023/04/19 06:48:43;;;;;;;1999.90;999.90;;;11.40;99.90;;;;;;5097564;28;20199;-51
2023/04/19 06:51:14;;;;;;;1999.90;999.90;;;11.60;99.90;;;;;;5108045;28;20906;-51
2023/04/19 06:53:43;;;;;;;1999.90;999.90;;;11.60;99.90;;;;;;5099825;28;20230;-52
2023/04/19 06:56:12;;;;;;;1999.90;999.90;;;12.00;99.90;;;;;;5107827;28;20210;-52
2023/04/19 06:58:40;;;;;;;1999.90;999.90;;;12.10;99.90;;;;;;5096202;28;20210;-53
2023/04/19 07:01:08;;;;;;;1999.90;999.90;;;12.00;99.90;;;;;;5112332;28;20203;-52
2023/04/19 07:03:36;;;;;;;1999.90;999.90;;;12.10;99.90;;;;;;5111718;28;20304;-52
2023/04/19 07:06:05;;;;;;;1999.90;999.90;;;11.90;99.90;;;;;;5112255;28;20204;-52
2023/04/19 07:08:34;;;;;;;1999.90;999.90;;;11.90;99.90;;;;;;5112224;28;20264;-52
2023/04/19 07:11:16;;;;;;;1999.90;999.90;;;12.00;99.90;;;;;;5101712;28;20215;-52
2023/04/19 07:13:47;;;;;;;1999.90;999.90;;;11.90;99.90;;;;;;5097715;28;20226;-52
2023/04/19 07:16:15;;;;;;;1999.90;999.90;;;12.00;99.90;;;;;;5083058;28;20736;-52
2023/04/19 07:18:44;;;;;;;1999.90;999.90;;;12.30;99.90;;;;;;5104901;28;20722;-52
2023/04/19 07:21:12;;;;;;;1999.90;999.90;;;12.60;99.90;;;;;;5111881;28;20203;-52
2023/04/19 07:23:42;;;;;;;1999.90;999.90;;;12.60;99.90;;;;;;5107363;28;20762;-52
2023/04/19 07:26:10;;;;;;;1999.90;999.90;;;12.70;99.90;;;;;;5111985;28;20239;-51
2023/04/19 07:28:39;;;;;;;1999.90;938.57;;;12.70;99.90;;;;;;5111228;28;20286;-52
2023/04/19 07:31:07;;;;;;;1999.90;999.90;;;12.80;99.90;;;;;;5108926;28;20241;-52
2023/04/19 07:33:35;;;;;;;1999.90;999.90;;;13.00;99.90;;;;;;5108944;28;20220;-52
2023/04/19 07:36:05;;;;;;;1999.90;999.90;;;12.80;99.90;;;;;;5111679;28;20280;-52
2023/04/19 07:38:33;;;;;;;1999.90;999.90;;;12.40;99.90;;;;;;5111466;28;20310;-50
2023/04/19 07:41:04;;;;;;;1999.90;999.90;;;12.60;99.90;;;;;;5104463;28;20223;-52
2023/04/19 07:43:32;;;;;;;1999.90;999.90;;;12.70;99.90;;;;;;5109512;28;20231;-52
2023/04/19 07:46:00;;;;;;;1999.90;999.90;;;12.20;99.90;;;;;;5099225;28;20235;-52
2023/04/19 07:48:28;;;;;;;1999.90;999.90;;;12.50;99.90;;;;;;5103021;28;20208;-51
2023/04/19 07:50:56;;;;;;;1999.90;999.90;;;12.20;99.90;;;;;;5111187;28;20211;-52
2023/04/19 07:53:24;;;;;;;1999.90;999.90;;;12.10;99.90;;;;;;5111304;28;20265;-52
2023/04/19 07:55:52;;;;;;;1999.90;999.90;;;12.10;99.90;;;;;;5110991;28;20562;-52
2023/04/19 07:58:22;;;;;;;1999.90;999.90;;;12.10;99.90;;;;;;5103267;28;20261;-53
2023/04/19 08:00:49;;;;;;;1999.90;999.90;;;11.90;99.90;;;;;;5103130;28;20298;-52
2023/04/19 08:03:18;;;;;;;1999.90;999.90;;;11.80;99.90;;;;;;5097024;28;20246;-52
2023/04/19 08:05:46;;;;;;;1999.90;999.90;;;11.70;99.90;;;;;;5096431;28;20210;-52
2023/04/19 08:08:14;;;;;;;1999.90;999.90;;;11.90;99.90;;;;;;5110740;28;20211;-52
2023/04/19 08:10:42;;;;;;;1999.90;999.90;;;12.10;99.90;;;;;;5109747;27;20203;-52
2023/04/19 08:13:10;;;;;;;1999.90;999.90;;;11.90;99.90;;;;;;5110725;28;20290;-52
2023/04/19 08:15:40;;;;;;;1999.90;999.90;;;11.70;99.90;;;;;;5110768;28;20242;-52
2023/04/19 08:18:10;;;;;;;1999.90;999.90;;;11.70;99.90;;;;;;5098352;28;20718;-52
2023/04/19 08:20:41;;;;;;;1999.90;999.90;;;12.00;99.90;;;;;;5108998;28;20204;-52
2023/04/19 08:23:10;;;;;;;1999.90;999.90;;;12.00;99.90;;;;;;5102238;28;20215;-52
2023/04/19 08:25:52;;;;;;;1999.90;999.90;;;12.20;99.90;;;;;;5096869;28;20254;-52
2023/04/19 08:28:20;;;;;;;1999.90;999.90;;;12.30;99.90;;;;;;5089260;28;20208;-51
2023/04/19 08:30:50;;;;;;;1999.90;999.20;;;12.30;99.90;;;;;;5090258;28;20239;-52
2023/04/19 08:33:18;;;;;;;1999.90;999.90;;;12.20;99.90;;;;;;5090043;28;20232;-52
2023/04/19 08:35:46;;;;;;;1999.90;999.90;;;12.30;99.90;;;;;;5081794;28;20291;-52
2023/04/19 08:38:14;;;;;;;1999.90;999.90;;;12.20;99.90;;;;;;5085176;28;20236;-52
2023/04/19 08:40:46;;;;;;;1999.90;999.90;;;12.00;99.90;;;;;;5090575;28;20243;-52
2023/04/19 08:43:16;;;;;;;1999.90;999.90;;;12.00;99.90;;;;;;5089603;28;20287;-53
2023/04/19 08:45:46;;;;;;;1999.90;999.90;;;11.90;99.90;;;;;;5076461;28;20200;-51
2023/04/19 08:48:17;;;;;;;1999.90;999.90;;;11.80;99.90;;;;;;5090574;28;20208;-52
2023/04/19 08:50:47;;;;;;;1999.90;999.90;;;11.80;99.90;;;;;;5090064;28;20215;-52
2023/04/19 08:53:34;;;;;;;1999.90;999.90;;;11.80;99.90;;;;;;5089871;28;20725;-52
2023/04/19 08:56:02;;;;;;;1999.90;999.90;;;11.80;99.90;;;;;;5089963;28;20676;-52
2023/04/19 08:58:47;;;;;;;1999.90;999.90;;;11.90;99.90;;;;;;5089939;28;20334;-52
2023/04/19 09:01:18;;;;;;;1999.90;999.90;;;11.90;99.90;;;;;;5081657;28;20215;-52
2023/04/19 09:04:01;;;;;;;1999.90;999.90;;;11.90;99.90;;;;;;5085833;28;20724;-52
2023/04/19 09:06:49;;;;;;;1999.90;999.90;;;12.10;99.90;;;;;;5090471;28;20211;-52
2023/04/19 09:09:19;;;;;;;1999.90;999.90;;;12.10;99.90;;;;;;5093825;28;20287;-52
2023/04/19 09:12:15;;;;;;;1999.90;999.90;;;12.10;99.90;;;;;;5100771;28;20286;-52
2023/04/19 09:14:46;;;;;;;1999.90;999.90;;;11.90;99.90;;;;;;5109695;28;20331;-51
2023/04/19 09:17:27;;;;;;;1999.90;999.90;;;11.90;99.90;;;;;;5107904;28;20690;-52
2023/04/19 09:19:57;;;;;;;1999.90;999.90;;;11.80;99.90;;;;;;5109651;28;20239;-52
2023/04/19 09:22:26;;;;;;;1999.90;999.90;;;11.90;99.90;;;;;;5109486;28;20227;-51
2023/04/19 09:24:54;;;;;;;1999.90;999.90;;;11.70;99.90;;;;;;5107789;28;20330;-51
2023/04/19 09:27:29;;;;;;;1999.90;999.90;;;11.80;99.90;;;;;;5097271;28;20222;-52
2023/04/19 09:29:58;;;;;;;1999.90;999.90;;;11.90;99.90;;;;;;5105663;28;20211;-51
2023/04/19 09:32:28;;;;;;;1999.90;999.90;;;11.90;99.90;;;;;;5109606;28;20243;-52
2023/04/19 09:34:59;;;;;;;1999.90;999.90;;;12.00;99.90;;;;;;5106423;28;20220;-52
2023/04/19 09:37:27;;;;;;;1999.90;999.90;;;12.00;99.90;;;;;;5083187;28;20296;-52
2023/04/19 09:39:58;;;;;;;1999.90;999.90;;;12.20;99.90;;;;;;5092330;28;20210;-51
2023/04/19 09:42:45;;;;;;;1999.90;999.90;;;12.10;99.90;;;;;;5077473;28;20301;-52
2023/04/19 09:45:17;;;;;;;1999.90;999.90;;;12.00;99.90;;;;;;5075436;28;20606;-51
2023/04/19 09:48:01;;;;;;;1999.90;999.90;;;12.00;99.90;;;;;;5075059;28;20212;-52
2023/04/19 09:50:30;;;;;;;1999.90;999.90;;;12.00;99.90;;;;;;5087260;28;20304;-52
2023/04/19 09:53:01;;;;;;;1999.90;999.90;;;11.80;99.90;;;;;;5087022;28;20204;-52
2023/04/19 09:55:30;;;;;;;1999.90;999.90;;;11.70;99.90;;;;;;5088664;28;20639;-52
2023/04/19 09:58:15;;;;;;;1999.90;999.90;;;11.70;99.90;;;;;;5088394;28;20219;-52
2023/04/19 10:00:46;;;;;;;1999.90;999.90;;;11.90;99.90;;;;;;5088325;28;20709;-51
2023/04/19 10:03:20;;;;;;;1999.90;999.90;;;11.80;99.90;;;;;;5088307;28;20730;-51
2023/04/19 10:05:50;;;;;;;1999.90;999.90;;;11.70;99.90;;;;;;5088382;28;20804;-52
2023/04/19 10:08:19;;;;;;;1999.90;999.90;;;11.80;99.90;;;;;;5088526;28;20257;-52
2023/04/19 10:10:53;;;;;;;1999.90;999.90;;;11.80;99.90;;;;;;5088521;28;20291;-51
2023/04/19 10:13:22;;;;;;;1999.90;999.90;;;11.90;99.90;;;;;;5088026;28;20259;-52
2023/04/19 10:15:54;;;;;;;1999.90;999.90;;;11.90;99.90;;;;;;5088792;28;20196;-52
2023/04/19 10:18:38;;;;;;;1999.90;999.90;;;12.20;99.90;;;;;;5088362;28;20689;-53
2023/04/19 10:21:10;;;;;;;1999.90;999.90;;;12.00;99.90;;;;;;5078325;28;20196;-52
2023/04/19 10:23:38;;;;;;;1999.90;999.90;;;12.10;99.90;;;;;;5078764;28;20315;-52
2023/04/19 10:26:06;;;;;;;1999.90;999.90;;;12.10;99.90;;;;;;5088057;28;20228;-52
2023/04/19 10:28:36;;;;;;;1999.90;999.90;;;12.10;99.90;;;;;;5086906;28;20205;-52
2023/04/19 10:31:05;;;;;;;1999.90;999.90;;;12.10;99.90;;;;;;5074124;28;20670;-52
2023/04/19 10:33:36;;;;;;;1999.90;999.90;;;12.20;99.90;;;;;;5089372;28;20243;-52
2023/04/19 10:36:10;;;;;;;1999.90;999.90;;;12.10;99.90;;;;;;5091724;28;20287;-52
2023/04/19 10:38:40;;;;;;;1999.90;999.90;;;12.10;99.90;;;;;;5091980;28;20210;-52
2023/04/19 10:41:13;;;;;;;1999.90;999.90;;;12.30;99.90;;;;;;5090278;28;20592;-52
2023/04/19 10:43:46;;;;;;;1999.90;999.90;;;12.20;99.00;;;;;;5090876;28;20310;-52
2023/04/19 10:46:16;;;;;;;1999.90;999.90;;;12.20;96.80;;;;;;5106763;28;20745;-52
2023/04/19 10:48:53;;;;;;;1999.90;999.90;;;12.30;94.80;;;;;;5101149;28;20214;-52
2023/04/19 10:51:26;;;;;;;1999.90;999.90;;;12.20;95.50;;;;;;5110220;28;20678;-52
2023/04/19 10:53:59;;;;;;;1999.90;999.90;;;12.10;94.90;;;;;;5094522;28;20732;-52
2023/04/19 10:56:59;;;;;;;1999.90;999.90;;;12.20;94.30;;;;;;5106782;28;20200;-52
2023/04/19 10:59:29;;;;;;;1999.90;999.90;;;12.30;95.10;;;;;;5112067;28;20290;-51
2023/04/19 11:01:58;;;;;;;1999.90;999.90;;;12.40;96.50;;;;;;5111866;28;20235;-51
2023/04/19 11:05:04;;;;;;;1999.90;999.90;;;12.60;97.60;;;;;;5105776;28;20236;-52
2023/04/19 11:07:41;;;;;;;1999.90;999.90;;;12.60;93.00;;;;;;5093759;28;20207;-52
2023/04/19 11:10:10;;;;;;;1999.90;999.90;;;12.50;94.60;;;;;;5111997;28;20221;-52
2023/04/19 11:12:42;;;;;;;1999.90;999.90;;;12.50;96.50;;;;;;5100346;27;20204;-52
2023/04/19 11:15:10;;;;;;;1999.90;999.90;;;12.60;93.50;;;;;;5106972;28;20254;-51
2023/04/19 11:17:39;;;;;;;1999.90;983.33;;;12.50;93.90;;;;;;5093991;28;20223;-51
2023/04/19 11:20:10;;;;;;;1999.90;999.90;;;12.60;93.20;;;;;;5107715;28;20242;-51
2023/04/19 11:22:40;;;;;;;1999.90;999.90;;;12.50;93.20;;;;;;5101626;28;20215;-51
2023/04/19 11:25:10;;;;;;;1999.90;999.90;;;12.50;90.30;;;;;;5111446;28;20605;-52
2023/04/19 11:27:39;;;;;;;1999.90;999.90;;;12.50;90.60;;;;;;5111610;28;20226;-53
2023/04/19 11:30:10;;;;;;;1999.90;999.90;;;12.50;92.30;;;;;;5111454;28;20257;-51
2023/04/19 11:32:44;;;;;;;1999.90;999.90;;;12.50;92.50;;;;;;5111635;28;20295;-51
2023/04/19 11:35:12;;;;;;;1999.90;999.90;;;12.50;93.80;;;;;;5106701;28;20219;-51
2023/04/19 11:37:42;;;;;;;1999.90;999.90;;;12.60;94.50;;;;;;5111263;28;20227;-51
2023/04/19 11:40:15;;;;;;;1999.90;999.90;;;12.60;93.20;;;;;;5111341;28;20638;-51
2023/04/19 11:42:43;;;;;;;1999.90;999.90;;;12.40;93.60;;;;;;5111281;28;20203;-51
2023/04/19 11:45:12;;;;;;;1999.90;999.90;;;12.50;93.60;;;;;;5110906;28;20230;-52
2023/04/19 11:47:56;;;;;;;1999.90;999.90;;;12.50;93.50;;;;;;5085171;28;20219;-51
2023/04/19 11:50:35;;;;;;;1999.90;999.90;;;12.50;92.70;;;;;;5104650;28;20626;-51
2023/04/19 11:53:15;;;;;;;1999.90;999.90;;;12.50;92.30;;;;;;5083139;28;20231;-52
2023/04/19 11:55:45;;;;;;;1999.90;999.90;;;12.40;92.70;;;;;;5111098;28;21003;-52
2023/04/19 11:58:32;;;;;;;1999.90;999.90;;;12.40;92.70;;;;;;5111047;28;20235;-52
2023/04/19 12:01:05;;;;;;;1999.90;999.90;;;12.30;93.10;;;;;;5110870;28;20257;-51
2023/04/19 12:03:33;;;;;;;1999.90;999.90;;;12.50;93.20;;;;;;5111085;28;20272;-52
2023/04/19 12:06:03;;;;;;;1999.90;999.90;;;12.60;93.10;;;;;;5110992;28;20235;-52
2023/04/19 12:08:35;;;;;;;1999.90;999.90;;;12.50;92.10;;;;;;5110829;27;20242;-52
2023/04/19 12:11:04;;;;;;;1999.90;999.90;;;12.50;91.90;;;;;;5110831;28;20207;-51
2023/04/19 12:13:33;;;;;;;1999.90;999.90;;;12.60;92.30;;;;;;5090648;28;20674;-51
2023/04/19 12:16:01;;;;;;;1999.90;999.90;;;12.70;90.50;;;;;;5110834;28;20238;-51